CPA377 ZSPD-VHHH
Flight info
| Callsign | CPA377 |
|---|---|
| Flight time | 2h 4m |
| Altitude | 36100 |
| Route | HSN92D HSN W13 BEGMO M503 TOLAK/N0490F361 M503 LELIM V591 ABBEY |
| Aircraft | B772/H-SDE2E3FGHIJ5LORVWXY/LB1D1 |
Departure
| Time | 2026-05-07 07:35 |
|---|---|
| Airport | Shanghai Pudong International Airport (ZSPD) |
Arrival
| Time | 2026-05-07 09:39 |
|---|---|
| Airport | Hong Kong International Airport (VHHH) |
| Time | Latitude | Longitude | Altitude | Speed | Heading |
|---|---|---|---|---|---|
| 2026-05-07 06:55 | 31.15283 | 121.80763 | 27 ft | 0 kts | 252° |
| 2026-05-07 07:23 | 31.15291 | 121.80789 | 27 ft | 4 kts | 245° |
| 2026-05-07 07:23 | 31.15303 | 121.80816 | 27 ft | 4 kts | 233° |
| 2026-05-07 07:23 | 31.15322 | 121.80838 | 26 ft | 4 kts | 205° |
| 2026-05-07 07:24 | 31.15341 | 121.80842 | 27 ft | 0 kts | 162° |
| 2026-05-07 07:27 | 31.15321 | 121.80850 | 27 ft | 7 kts | 162° |
| 2026-05-07 07:27 | 31.15257 | 121.80874 | 27 ft | 13 kts | 162° |
| 2026-05-07 07:27 | 31.15156 | 121.80912 | 27 ft | 18 kts | 162° |
| 2026-05-07 07:27 | 31.15040 | 121.80957 | 27 ft | 17 kts | 162° |
| 2026-05-07 07:28 | 31.14940 | 121.80996 | 27 ft | 15 kts | 162° |
| 2026-05-07 07:28 | 31.14853 | 121.81027 | 27 ft | 12 kts | 162° |
| 2026-05-07 07:28 | 31.14806 | 121.81058 | 27 ft | 6 kts | 119° |
| 2026-05-07 07:28 | 31.14806 | 121.81108 | 27 ft | 8 kts | 80° |
| 2026-05-07 07:29 | 31.14829 | 121.81199 | 27 ft | 16 kts | 72° |
| 2026-05-07 07:29 | 31.14860 | 121.81323 | 27 ft | 11 kts | 91° |
| 2026-05-07 07:29 | 31.14789 | 121.81372 | 27 ft | 16 kts | 162° |
| 2026-05-07 07:29 | 31.14663 | 121.81419 | 27 ft | 22 kts | 162° |
| 2026-05-07 07:30 | 31.14497 | 121.81482 | 27 ft | 28 kts | 162° |
| 2026-05-07 07:30 | 31.14305 | 121.81554 | 27 ft | 29 kts | 162° |
| 2026-05-07 07:30 | 31.14111 | 121.81629 | 27 ft | 29 kts | 161° |
| 2026-05-07 07:30 | 31.13917 | 121.81704 | 27 ft | 28 kts | 162° |
| 2026-05-07 07:31 | 31.13763 | 121.81760 | 27 ft | 22 kts | 163° |
| 2026-05-07 07:31 | 31.13617 | 121.81813 | 27 ft | 22 kts | 162° |
| 2026-05-07 07:31 | 31.13479 | 121.81866 | 27 ft | 20 kts | 162° |
| 2026-05-07 07:31 | 31.13346 | 121.81917 | 27 ft | 20 kts | 162° |
| 2026-05-07 07:32 | 31.13213 | 121.81966 | 26 ft | 20 kts | 162° |
| 2026-05-07 07:32 | 31.13082 | 121.82016 | 27 ft | 20 kts | 162° |
| 2026-05-07 07:32 | 31.12993 | 121.82050 | 27 ft | 20 kts | 162° |
| 2026-05-07 07:32 | 31.12862 | 121.82099 | 26 ft | 20 kts | 162° |
| 2026-05-07 07:33 | 31.12697 | 121.82161 | 27 ft | 15 kts | 162° |
| 2026-05-07 07:33 | 31.12626 | 121.82194 | 27 ft | 9 kts | 142° |
| 2026-05-07 07:33 | 31.12609 | 121.82239 | 27 ft | 9 kts | 82° |
| 2026-05-07 07:33 | 31.12628 | 121.82313 | 27 ft | 10 kts | 72° |
| 2026-05-07 07:34 | 31.12653 | 121.82384 | 26 ft | 10 kts | 50° |
| 2026-05-07 07:34 | 31.12716 | 121.82381 | 28 ft | 10 kts | 342° |
| 2026-05-07 07:34 | 31.12842 | 121.82334 | 26 ft | 48 kts | 342° |
| 2026-05-07 07:34 | 31.13429 | 121.82113 | 29 ft | 127 kts | 342° |
| 2026-05-07 07:35 | 31.14471 | 121.81716 | 220 ft | 174 kts | 343° |
| 2026-05-07 07:35 | 31.15611 | 121.81256 | 1059 ft | 177 kts | 341° |
| 2026-05-07 07:35 | 31.16800 | 121.80975 | 1923 ft | 176 kts | 6° |
| 2026-05-07 07:35 | 31.17985 | 121.81255 | 2575 ft | 174 kts | 9° |
| 2026-05-07 07:36 | 31.19222 | 121.81496 | 3020 ft | 190 kts | 7° |
| 2026-05-07 07:36 | 31.20661 | 121.81755 | 3026 ft | 227 kts | 7° |
| 2026-05-07 07:36 | 31.22274 | 121.82046 | 3007 ft | 233 kts | 6° |
| 2026-05-07 07:36 | 31.23875 | 121.82337 | 2963 ft | 239 kts | 7° |
| 2026-05-07 07:37 | 31.25587 | 121.82644 | 3009 ft | 256 kts | 7° |
| 2026-05-07 07:37 | 31.27361 | 121.82967 | 3003 ft | 259 kts | 7° |
| 2026-05-07 07:37 | 31.29148 | 121.83289 | 2999 ft | 261 kts | 7° |
| 2026-05-07 07:37 | 31.30944 | 121.83612 | 3017 ft | 262 kts | 7° |
| 2026-05-07 07:38 | 31.32725 | 121.83939 | 3008 ft | 261 kts | 7° |
| 2026-05-07 07:38 | 31.34518 | 121.84232 | 3562 ft | 259 kts | 6° |
| 2026-05-07 07:38 | 31.36242 | 121.84893 | 4114 ft | 270 kts | 34° |
| 2026-05-07 07:38 | 31.37365 | 121.86643 | 4966 ft | 277 kts | 69° |
| 2026-05-07 07:39 | 31.37675 | 121.88873 | 5620 ft | 281 kts | 82° |
| 2026-05-07 07:39 | 31.37978 | 121.91170 | 6269 ft | 288 kts | 78° |
| 2026-05-07 07:39 | 31.38296 | 121.93483 | 6934 ft | 289 kts | 87° |
| 2026-05-07 07:39 | 31.37836 | 121.95789 | 7480 ft | 298 kts | 121° |
| 2026-05-07 07:40 | 31.36421 | 121.97529 | 8234 ft | 297 kts | 150° |
| 2026-05-07 07:40 | 31.34546 | 121.98470 | 8967 ft | 293 kts | 167° |
| 2026-05-07 07:40 | 31.32544 | 121.99064 | 9583 ft | 299 kts | 170° |
| 2026-05-07 07:40 | 31.30500 | 121.99613 | 10262 ft | 303 kts | 171° |
| 2026-05-07 07:41 | 31.28374 | 122.00165 | 10552 ft | 326 kts | 171° |
| 2026-05-07 07:41 | 31.26064 | 122.00759 | 10747 ft | 353 kts | 171° |
| 2026-05-07 07:41 | 31.23608 | 122.01399 | 11276 ft | 368 kts | 171° |
| 2026-05-07 07:41 | 31.21078 | 122.02069 | 12117 ft | 376 kts | 170° |
| 2026-05-07 07:42 | 31.18519 | 122.02755 | 13180 ft | 379 kts | 171° |
| 2026-05-07 07:42 | 31.15941 | 122.03449 | 14188 ft | 382 kts | 171° |
| 2026-05-07 07:42 | 31.13321 | 122.04157 | 15048 ft | 390 kts | 171° |
| 2026-05-07 07:42 | 31.10657 | 122.04878 | 15919 ft | 396 kts | 171° |
| 2026-05-07 07:43 | 31.07950 | 122.05611 | 16823 ft | 402 kts | 171° |
| 2026-05-07 07:43 | 31.05236 | 122.06345 | 17708 ft | 408 kts | 171° |
| 2026-05-07 07:43 | 31.02411 | 122.07107 | 18553 ft | 415 kts | 171° |
| 2026-05-07 07:43 | 30.99615 | 122.07864 | 19333 ft | 420 kts | 171° |
| 2026-05-07 07:44 | 30.96750 | 122.08638 | 20157 ft | 425 kts | 172° |
| 2026-05-07 07:44 | 30.93853 | 122.09419 | 20975 ft | 430 kts | 172° |
| 2026-05-07 07:44 | 30.90922 | 122.10209 | 21791 ft | 435 kts | 172° |
| 2026-05-07 07:44 | 30.87953 | 122.11009 | 22602 ft | 440 kts | 172° |
| 2026-05-07 07:45 | 30.84955 | 122.11819 | 23365 ft | 446 kts | 172° |
| 2026-05-07 07:45 | 30.81914 | 122.12640 | 23971 ft | 451 kts | 172° |
| 2026-05-07 07:45 | 30.78839 | 122.13465 | 24590 ft | 455 kts | 172° |
| 2026-05-07 07:45 | 30.75742 | 122.14296 | 25220 ft | 459 kts | 172° |
| 2026-05-07 07:46 | 30.72616 | 122.15136 | 25830 ft | 462 kts | 172° |
| 2026-05-07 07:46 | 30.69471 | 122.15982 | 26420 ft | 466 kts | 172° |
| 2026-05-07 07:46 | 30.66297 | 122.16833 | 26974 ft | 470 kts | 172° |
| 2026-05-07 07:46 | 30.63093 | 122.17693 | 27469 ft | 475 kts | 172° |
| 2026-05-07 07:47 | 30.59854 | 122.18561 | 27962 ft | 479 kts | 172° |
| 2026-05-07 07:47 | 30.56589 | 122.19436 | 28455 ft | 483 kts | 172° |
| 2026-05-07 07:47 | 30.53308 | 122.20314 | 28939 ft | 486 kts | 172° |
| 2026-05-07 07:47 | 30.50039 | 122.21186 | 29408 ft | 490 kts | 172° |
| 2026-05-07 07:48 | 30.46706 | 122.22078 | 29840 ft | 493 kts | 172° |
| 2026-05-07 07:48 | 30.43351 | 122.22974 | 30214 ft | 497 kts | 172° |
| 2026-05-07 07:48 | 30.39976 | 122.23876 | 30530 ft | 499 kts | 172° |
| 2026-05-07 07:48 | 30.36574 | 122.24784 | 30793 ft | 503 kts | 172° |
| 2026-05-07 07:49 | 30.33139 | 122.25698 | 31028 ft | 507 kts | 172° |
| 2026-05-07 07:49 | 30.29699 | 122.26612 | 31311 ft | 509 kts | 172° |
| 2026-05-07 07:49 | 30.26239 | 122.27535 | 31620 ft | 511 kts | 172° |
| 2026-05-07 07:49 | 30.22761 | 122.28462 | 31944 ft | 512 kts | 172° |
| 2026-05-07 07:50 | 30.19294 | 122.29385 | 32312 ft | 511 kts | 173° |
| 2026-05-07 07:50 | 30.15832 | 122.30306 | 32693 ft | 510 kts | 173° |
| 2026-05-07 07:50 | 30.12365 | 122.31227 | 33030 ft | 510 kts | 173° |
| 2026-05-07 07:50 | 30.08887 | 122.32147 | 33148 ft | 516 kts | 174° |
| 2026-05-07 07:51 | 30.05379 | 122.33074 | 33384 ft | 518 kts | 174° |
| 2026-05-07 07:51 | 30.01857 | 122.34008 | 33796 ft | 516 kts | 174° |
| 2026-05-07 07:51 | 29.98360 | 122.34937 | 34186 ft | 515 kts | 174° |
| 2026-05-07 07:51 | 29.94892 | 122.35856 | 34660 ft | 511 kts | 174° |
| 2026-05-07 07:52 | 29.91429 | 122.36757 | 35052 ft | 509 kts | 175° |
| 2026-05-07 07:52 | 29.88011 | 122.37584 | 35386 ft | 508 kts | 176° |
| 2026-05-07 07:52 | 29.84548 | 122.38383 | 35698 ft | 508 kts | 177° |
| 2026-05-07 07:52 | 29.81081 | 122.39169 | 35952 ft | 509 kts | 177° |
| 2026-05-07 07:53 | 29.77586 | 122.39959 | 35992 ft | 512 kts | 177° |
| 2026-05-07 07:53 | 29.70627 | 122.41564 | 36009 ft | 507 kts | 177° |
| 2026-05-07 07:54 | 29.63724 | 122.43172 | 36020 ft | 506 kts | 177° |
| 2026-05-07 07:54 | 29.56822 | 122.44777 | 36022 ft | 506 kts | 177° |
| 2026-05-07 07:55 | 29.49904 | 122.46383 | 36022 ft | 507 kts | 177° |
| 2026-05-07 07:55 | 29.42980 | 122.47988 | 36024 ft | 507 kts | 177° |
| 2026-05-07 07:56 | 29.36057 | 122.49590 | 36023 ft | 508 kts | 177° |
| 2026-05-07 07:56 | 29.29143 | 122.51191 | 36018 ft | 506 kts | 177° |
| 2026-05-07 07:57 | 29.22265 | 122.52339 | 36018 ft | 487 kts | 191° |
| 2026-05-07 07:57 | 29.18951 | 122.51904 | 36026 ft | 474 kts | 200° |
| 2026-05-07 07:57 | 29.15832 | 122.50889 | 36026 ft | 462 kts | 210° |
| 2026-05-07 07:58 | 29.10208 | 122.47669 | 36001 ft | 455 kts | 216° |
| 2026-05-07 07:58 | 29.04596 | 122.44267 | 36013 ft | 457 kts | 216° |
| 2026-05-07 07:59 | 28.98957 | 122.40901 | 36024 ft | 457 kts | 215° |
| 2026-05-07 07:59 | 28.93298 | 122.37567 | 36025 ft | 457 kts | 215° |
| 2026-05-07 08:00 | 28.87652 | 122.34254 | 36024 ft | 456 kts | 216° |
| 2026-05-07 08:00 | 28.82043 | 122.30968 | 36028 ft | 456 kts | 216° |
| 2026-05-07 08:01 | 28.76406 | 122.27666 | 36029 ft | 455 kts | 216° |
| 2026-05-07 08:01 | 28.70760 | 122.24361 | 36026 ft | 455 kts | 216° |
| 2026-05-07 08:02 | 28.65115 | 122.21062 | 36017 ft | 457 kts | 215° |
| 2026-05-07 08:02 | 28.59430 | 122.17741 | 36022 ft | 460 kts | 215° |
| 2026-05-07 08:03 | 28.53755 | 122.14434 | 36025 ft | 462 kts | 215° |
| 2026-05-07 08:03 | 28.48029 | 122.11100 | 36022 ft | 462 kts | 215° |
| 2026-05-07 08:04 | 28.42286 | 122.07763 | 36020 ft | 464 kts | 215° |
| 2026-05-07 08:04 | 28.36534 | 122.04423 | 36025 ft | 464 kts | 214° |
| 2026-05-07 08:05 | 28.30778 | 122.01086 | 36023 ft | 463 kts | 214° |
| 2026-05-07 08:05 | 28.25048 | 121.97769 | 36029 ft | 462 kts | 214° |
| 2026-05-07 08:06 | 28.19351 | 121.94467 | 36026 ft | 464 kts | 214° |
| 2026-05-07 08:06 | 28.13574 | 121.91129 | 36030 ft | 467 kts | 214° |
| 2026-05-07 08:07 | 28.07765 | 121.87776 | 36031 ft | 469 kts | 214° |
| 2026-05-07 08:07 | 28.01934 | 121.84414 | 36010 ft | 470 kts | 214° |
| 2026-05-07 08:08 | 27.96141 | 121.80987 | 36024 ft | 470 kts | 216° |
| 2026-05-07 08:08 | 27.90420 | 121.77413 | 36028 ft | 468 kts | 216° |
| 2026-05-07 08:09 | 27.84721 | 121.73864 | 36029 ft | 467 kts | 215° |
| 2026-05-07 08:09 | 27.79042 | 121.70346 | 36018 ft | 469 kts | 215° |
| 2026-05-07 08:10 | 27.73309 | 121.66804 | 36029 ft | 472 kts | 215° |
| 2026-05-07 08:10 | 27.67523 | 121.63243 | 36028 ft | 474 kts | 215° |
| 2026-05-07 08:11 | 27.61720 | 121.59681 | 36026 ft | 474 kts | 215° |
| 2026-05-07 08:11 | 27.55926 | 121.56124 | 36016 ft | 474 kts | 215° |
| 2026-05-07 08:12 | 27.50113 | 121.52597 | 36019 ft | 475 kts | 215° |
| 2026-05-07 08:12 | 27.44285 | 121.49058 | 36030 ft | 476 kts | 215° |
| 2026-05-07 08:13 | 27.38451 | 121.45519 | 36027 ft | 477 kts | 214° |
| 2026-05-07 08:13 | 27.32607 | 121.41976 | 36026 ft | 476 kts | 214° |
| 2026-05-07 08:14 | 27.26778 | 121.38446 | 36021 ft | 476 kts | 214° |
| 2026-05-07 08:14 | 27.20978 | 121.34935 | 36024 ft | 476 kts | 215° |
| 2026-05-07 08:15 | 27.15157 | 121.31399 | 36025 ft | 476 kts | 215° |
| 2026-05-07 08:15 | 27.09334 | 121.27861 | 36023 ft | 476 kts | 215° |
| 2026-05-07 08:16 | 27.03492 | 121.24318 | 36029 ft | 477 kts | 215° |
| 2026-05-07 08:16 | 26.97647 | 121.20778 | 36028 ft | 478 kts | 215° |
| 2026-05-07 08:17 | 26.91788 | 121.17233 | 36024 ft | 478 kts | 214° |
| 2026-05-07 08:17 | 26.85938 | 121.13699 | 36018 ft | 478 kts | 214° |
| 2026-05-07 08:18 | 26.80108 | 121.10180 | 36028 ft | 478 kts | 214° |
| 2026-05-07 08:18 | 26.74247 | 121.06648 | 36026 ft | 479 kts | 214° |
| 2026-05-07 08:19 | 26.68378 | 121.03114 | 36002 ft | 479 kts | 214° |
| 2026-05-07 08:19 | 26.62508 | 120.99580 | 36036 ft | 480 kts | 214° |
| 2026-05-07 08:20 | 26.56611 | 120.96033 | 36025 ft | 481 kts | 214° |
| 2026-05-07 08:20 | 26.51707 | 120.93088 | 36023 ft | 482 kts | 214° |
| 2026-05-07 08:21 | 26.45794 | 120.89541 | 36004 ft | 483 kts | 214° |
| 2026-05-07 08:21 | 26.39865 | 120.85988 | 36020 ft | 483 kts | 214° |
| 2026-05-07 08:22 | 26.33931 | 120.82436 | 36033 ft | 484 kts | 214° |
| 2026-05-07 08:22 | 26.27998 | 120.78888 | 36022 ft | 484 kts | 214° |
| 2026-05-07 08:23 | 26.22091 | 120.75363 | 36000 ft | 484 kts | 214° |
| 2026-05-07 08:23 | 26.16148 | 120.71819 | 36017 ft | 484 kts | 214° |
| 2026-05-07 08:24 | 26.10209 | 120.68280 | 36020 ft | 484 kts | 214° |
| 2026-05-07 08:24 | 26.04257 | 120.64736 | 36025 ft | 485 kts | 214° |
| 2026-05-07 08:25 | 25.98307 | 120.61201 | 36007 ft | 485 kts | 214° |
| 2026-05-07 08:25 | 25.92352 | 120.57666 | 36016 ft | 485 kts | 214° |
| 2026-05-07 08:26 | 25.83408 | 120.52363 | 36023 ft | 486 kts | 214° |
| 2026-05-07 08:26 | 25.77478 | 120.48851 | 36021 ft | 486 kts | 214° |
| 2026-05-07 08:27 | 25.71506 | 120.45320 | 36019 ft | 486 kts | 214° |
| 2026-05-07 08:27 | 25.65537 | 120.41793 | 36024 ft | 486 kts | 214° |
| 2026-05-07 08:28 | 25.59804 | 120.37892 | 36020 ft | 479 kts | 223° |
| 2026-05-07 08:28 | 25.54510 | 120.33420 | 36025 ft | 478 kts | 223° |
| 2026-05-07 08:29 | 25.49205 | 120.28958 | 36014 ft | 480 kts | 223° |
| 2026-05-07 08:29 | 25.43862 | 120.24510 | 36025 ft | 481 kts | 222° |
| 2026-05-07 08:30 | 25.38501 | 120.20068 | 36021 ft | 482 kts | 222° |
| 2026-05-07 08:30 | 25.33127 | 120.15621 | 36020 ft | 482 kts | 222° |
| 2026-05-07 08:31 | 25.27744 | 120.11171 | 36015 ft | 482 kts | 222° |
| 2026-05-07 08:31 | 25.22412 | 120.06765 | 36021 ft | 482 kts | 222° |
| 2026-05-07 08:32 | 25.17033 | 120.02327 | 36022 ft | 482 kts | 222° |
| 2026-05-07 08:32 | 25.11663 | 119.97899 | 36018 ft | 482 kts | 222° |
| 2026-05-07 08:33 | 25.06282 | 119.93469 | 36015 ft | 482 kts | 222° |
| 2026-05-07 08:33 | 25.00960 | 119.88980 | 36023 ft | 479 kts | 226° |
| 2026-05-07 08:34 | 24.96358 | 119.83772 | 36019 ft | 472 kts | 234° |
| 2026-05-07 08:34 | 24.92119 | 119.78252 | 36020 ft | 472 kts | 234° |
| 2026-05-07 08:35 | 24.87863 | 119.72742 | 36016 ft | 472 kts | 234° |
| 2026-05-07 08:35 | 24.83590 | 119.67250 | 36008 ft | 472 kts | 234° |
| 2026-05-07 08:36 | 24.79305 | 119.61767 | 36011 ft | 472 kts | 234° |
| 2026-05-07 08:36 | 24.75012 | 119.56283 | 36009 ft | 473 kts | 234° |
| 2026-05-07 08:37 | 24.70740 | 119.50832 | 36013 ft | 473 kts | 234° |
| 2026-05-07 08:37 | 24.66447 | 119.45356 | 36012 ft | 472 kts | 234° |
| 2026-05-07 08:38 | 24.62157 | 119.39891 | 36016 ft | 472 kts | 234° |
| 2026-05-07 08:38 | 24.57868 | 119.34434 | 36018 ft | 472 kts | 234° |
| 2026-05-07 08:39 | 24.53570 | 119.28973 | 36009 ft | 473 kts | 234° |
| 2026-05-07 08:39 | 24.49263 | 119.23506 | 36021 ft | 473 kts | 234° |
| 2026-05-07 08:40 | 24.44952 | 119.18039 | 36000 ft | 473 kts | 234° |
| 2026-05-07 08:40 | 24.40648 | 119.12589 | 36004 ft | 473 kts | 234° |
| 2026-05-07 08:41 | 24.36331 | 119.07127 | 36010 ft | 474 kts | 234° |
| 2026-05-07 08:41 | 24.32031 | 119.01692 | 36013 ft | 476 kts | 234° |
| 2026-05-07 08:42 | 24.27689 | 118.96214 | 36011 ft | 476 kts | 234° |
| 2026-05-07 08:42 | 24.23348 | 118.90742 | 36011 ft | 476 kts | 234° |
| 2026-05-07 08:43 | 24.19007 | 118.85274 | 35995 ft | 476 kts | 233° |
| 2026-05-07 08:43 | 24.14659 | 118.79804 | 36007 ft | 476 kts | 233° |
| 2026-05-07 08:44 | 24.10299 | 118.74325 | 36010 ft | 477 kts | 233° |
| 2026-05-07 08:44 | 24.05926 | 118.68836 | 36011 ft | 478 kts | 233° |
| 2026-05-07 08:45 | 24.01557 | 118.63360 | 36015 ft | 477 kts | 233° |
| 2026-05-07 08:45 | 23.97196 | 118.57898 | 35999 ft | 476 kts | 233° |
| 2026-05-07 08:46 | 23.92842 | 118.52450 | 36006 ft | 475 kts | 233° |
| 2026-05-07 08:46 | 23.88483 | 118.47002 | 36011 ft | 476 kts | 233° |
| 2026-05-07 08:47 | 23.84127 | 118.41584 | 36010 ft | 477 kts | 233° |
| 2026-05-07 08:47 | 23.79722 | 118.36166 | 36012 ft | 477 kts | 233° |
| 2026-05-07 08:48 | 23.75313 | 118.30756 | 35996 ft | 476 kts | 233° |
| 2026-05-07 08:48 | 23.70911 | 118.25347 | 36007 ft | 476 kts | 233° |
| 2026-05-07 08:49 | 23.66497 | 118.19931 | 36012 ft | 477 kts | 233° |
| 2026-05-07 08:49 | 23.62106 | 118.14545 | 36014 ft | 478 kts | 233° |
| 2026-05-07 08:50 | 23.57655 | 118.09092 | 35676 ft | 478 kts | 232° |
| 2026-05-07 08:50 | 23.55477 | 118.06430 | 35545 ft | 472 kts | 232° |
| 2026-05-07 08:50 | 23.53306 | 118.03779 | 35473 ft | 465 kts | 232° |
| 2026-05-07 08:51 | 23.51154 | 118.01150 | 35267 ft | 463 kts | 232° |
| 2026-05-07 08:51 | 23.49012 | 117.98531 | 35009 ft | 463 kts | 232° |
| 2026-05-07 08:51 | 23.46865 | 117.95908 | 34729 ft | 464 kts | 232° |
| 2026-05-07 08:51 | 23.44711 | 117.93276 | 34435 ft | 465 kts | 232° |
| 2026-05-07 08:52 | 23.42561 | 117.90650 | 34176 ft | 465 kts | 231° |
| 2026-05-07 08:52 | 23.40399 | 117.88012 | 33918 ft | 466 kts | 231° |
| 2026-05-07 08:52 | 23.38246 | 117.85388 | 33623 ft | 466 kts | 231° |
| 2026-05-07 08:52 | 23.36082 | 117.82754 | 33329 ft | 466 kts | 231° |
| 2026-05-07 08:53 | 23.33925 | 117.80128 | 33044 ft | 466 kts | 231° |
| 2026-05-07 08:53 | 23.31764 | 117.77498 | 32761 ft | 466 kts | 231° |
| 2026-05-07 08:53 | 23.29626 | 117.74898 | 32463 ft | 467 kts | 231° |
| 2026-05-07 08:53 | 23.27458 | 117.72264 | 32110 ft | 468 kts | 231° |
| 2026-05-07 08:54 | 23.25286 | 117.69627 | 31826 ft | 468 kts | 231° |
| 2026-05-07 08:54 | 23.23115 | 117.66992 | 31525 ft | 468 kts | 231° |
| 2026-05-07 08:54 | 23.20948 | 117.64362 | 31217 ft | 468 kts | 230° |
| 2026-05-07 08:54 | 23.18776 | 117.61725 | 30921 ft | 468 kts | 230° |
| 2026-05-07 08:55 | 23.16603 | 117.59089 | 30610 ft | 468 kts | 230° |
| 2026-05-07 08:55 | 23.14429 | 117.56455 | 30301 ft | 468 kts | 230° |
| 2026-05-07 08:55 | 23.12253 | 117.53818 | 29985 ft | 468 kts | 230° |
| 2026-05-07 08:55 | 23.10078 | 117.51186 | 29922 ft | 468 kts | 230° |
| 2026-05-07 08:56 | 23.05754 | 117.45880 | 29901 ft | 470 kts | 231° |
| 2026-05-07 08:56 | 23.01450 | 117.40516 | 29903 ft | 471 kts | 231° |
| 2026-05-07 08:57 | 22.97130 | 117.35176 | 29908 ft | 471 kts | 231° |
| 2026-05-07 08:57 | 22.92874 | 117.29781 | 29911 ft | 470 kts | 235° |
| 2026-05-07 08:58 | 22.89046 | 117.24039 | 29906 ft | 469 kts | 236° |
| 2026-05-07 08:58 | 22.85245 | 117.18331 | 29908 ft | 470 kts | 236° |
| 2026-05-07 08:59 | 22.81393 | 117.12606 | 29909 ft | 470 kts | 236° |
| 2026-05-07 08:59 | 22.77544 | 117.06898 | 29909 ft | 469 kts | 236° |
| 2026-05-07 09:00 | 22.73912 | 117.01051 | 29917 ft | 467 kts | 242° |
| 2026-05-07 09:00 | 22.71225 | 116.94668 | 29908 ft | 465 kts | 250° |
| 2026-05-07 09:01 | 22.68872 | 116.88135 | 29906 ft | 466 kts | 250° |
| 2026-05-07 09:01 | 22.66490 | 116.81603 | 29907 ft | 466 kts | 249° |
| 2026-05-07 09:02 | 22.64094 | 116.75091 | 29906 ft | 465 kts | 249° |
| 2026-05-07 09:02 | 22.61692 | 116.68588 | 29893 ft | 466 kts | 249° |
| 2026-05-07 09:03 | 22.59285 | 116.62075 | 29909 ft | 466 kts | 249° |
| 2026-05-07 09:03 | 22.57281 | 116.56659 | 29911 ft | 467 kts | 249° |
| 2026-05-07 09:04 | 22.54472 | 116.49079 | 29907 ft | 467 kts | 249° |
| 2026-05-07 09:04 | 22.52052 | 116.42557 | 29909 ft | 467 kts | 249° |
| 2026-05-07 09:05 | 22.50040 | 116.37146 | 29912 ft | 467 kts | 249° |
| 2026-05-07 09:05 | 22.47617 | 116.30634 | 29912 ft | 466 kts | 249° |
| 2026-05-07 09:06 | 22.45194 | 116.24133 | 29922 ft | 466 kts | 249° |
| 2026-05-07 09:06 | 22.42772 | 116.17642 | 29903 ft | 465 kts | 250° |
| 2026-05-07 09:07 | 22.40345 | 116.11148 | 29911 ft | 467 kts | 250° |
| 2026-05-07 09:07 | 22.37909 | 116.04636 | 29914 ft | 468 kts | 249° |
| 2026-05-07 09:08 | 22.35467 | 115.98120 | 29913 ft | 468 kts | 249° |
| 2026-05-07 09:08 | 22.33020 | 115.91601 | 29916 ft | 468 kts | 250° |
| 2026-05-07 09:09 | 22.30749 | 115.85067 | 29908 ft | 466 kts | 256° |
| 2026-05-07 09:09 | 22.29537 | 115.78206 | 29911 ft | 465 kts | 264° |
| 2026-05-07 09:10 | 22.29317 | 115.71234 | 29924 ft | 464 kts | 270° |
| 2026-05-07 09:10 | 22.29191 | 115.64260 | 29907 ft | 465 kts | 269° |
| 2026-05-07 09:11 | 22.29091 | 115.60752 | 29219 ft | 473 kts | 269° |
| 2026-05-07 09:11 | 22.28984 | 115.57180 | 28340 ft | 474 kts | 269° |
| 2026-05-07 09:11 | 22.28879 | 115.53651 | 27522 ft | 467 kts | 269° |
| 2026-05-07 09:11 | 22.28776 | 115.50166 | 26718 ft | 461 kts | 269° |
| 2026-05-07 09:12 | 22.28676 | 115.46722 | 25936 ft | 456 kts | 269° |
| 2026-05-07 09:12 | 22.28579 | 115.43318 | 25143 ft | 451 kts | 269° |
| 2026-05-07 09:12 | 22.28484 | 115.39994 | 24375 ft | 447 kts | 269° |
| 2026-05-07 09:12 | 22.28387 | 115.36643 | 23596 ft | 444 kts | 268° |
| 2026-05-07 09:13 | 22.28289 | 115.33320 | 22701 ft | 441 kts | 268° |
| 2026-05-07 09:13 | 22.28190 | 115.30034 | 21886 ft | 436 kts | 268° |
| 2026-05-07 09:13 | 22.28090 | 115.26780 | 21118 ft | 431 kts | 268° |
| 2026-05-07 09:13 | 22.27991 | 115.23571 | 20372 ft | 426 kts | 268° |
| 2026-05-07 09:14 | 22.27892 | 115.20391 | 19631 ft | 421 kts | 268° |
| 2026-05-07 09:14 | 22.27793 | 115.17241 | 18894 ft | 417 kts | 268° |
| 2026-05-07 09:14 | 22.27696 | 115.14121 | 18166 ft | 414 kts | 268° |
| 2026-05-07 09:14 | 22.27599 | 115.11025 | 17383 ft | 410 kts | 268° |
| 2026-05-07 09:15 | 22.27502 | 115.07969 | 16651 ft | 406 kts | 268° |
| 2026-05-07 09:15 | 22.27405 | 115.04941 | 15945 ft | 401 kts | 268° |
| 2026-05-07 09:15 | 22.27308 | 115.01940 | 15239 ft | 397 kts | 268° |
| 2026-05-07 09:15 | 22.27213 | 114.98971 | 14607 ft | 393 kts | 268° |
| 2026-05-07 09:16 | 22.27118 | 114.96072 | 13931 ft | 391 kts | 268° |
| 2026-05-07 09:16 | 22.27024 | 114.93157 | 13230 ft | 388 kts | 268° |
| 2026-05-07 09:16 | 22.26928 | 114.90235 | 12581 ft | 383 kts | 268° |
| 2026-05-07 09:16 | 22.26827 | 114.87372 | 11931 ft | 379 kts | 268° |
| 2026-05-07 09:17 | 22.26727 | 114.84546 | 11352 ft | 375 kts | 267° |
| 2026-05-07 09:17 | 22.26630 | 114.81784 | 11180 ft | 359 kts | 267° |
| 2026-05-07 09:17 | 22.26296 | 114.79234 | 11006 ft | 334 kts | 251° |
| 2026-05-07 09:17 | 22.25288 | 114.77066 | 10836 ft | 324 kts | 236° |
| 2026-05-07 09:18 | 22.23836 | 114.75253 | 10673 ft | 317 kts | 225° |
| 2026-05-07 09:18 | 22.22241 | 114.73616 | 10511 ft | 317 kts | 225° |
| 2026-05-07 09:18 | 22.20629 | 114.71993 | 10385 ft | 313 kts | 224° |
| 2026-05-07 09:18 | 22.19061 | 114.70414 | 10200 ft | 303 kts | 224° |
| 2026-05-07 09:19 | 22.17543 | 114.68877 | 10056 ft | 293 kts | 225° |
| 2026-05-07 09:19 | 22.16102 | 114.67415 | 9918 ft | 283 kts | 225° |
| 2026-05-07 09:19 | 22.14693 | 114.65977 | 9770 ft | 274 kts | 225° |
| 2026-05-07 09:19 | 22.13325 | 114.64576 | 9616 ft | 270 kts | 225° |
| 2026-05-07 09:20 | 22.11968 | 114.63183 | 9500 ft | 268 kts | 225° |
| 2026-05-07 09:20 | 22.10617 | 114.61799 | 9371 ft | 268 kts | 225° |
| 2026-05-07 09:20 | 22.09268 | 114.60416 | 9230 ft | 268 kts | 225° |
| 2026-05-07 09:20 | 22.07921 | 114.59033 | 9107 ft | 268 kts | 225° |
| 2026-05-07 09:21 | 22.06577 | 114.57655 | 9055 ft | 265 kts | 225° |
| 2026-05-07 09:21 | 22.05239 | 114.56285 | 8922 ft | 265 kts | 225° |
| 2026-05-07 09:21 | 22.03898 | 114.54911 | 8817 ft | 266 kts | 225° |
| 2026-05-07 09:21 | 22.02571 | 114.53522 | 8696 ft | 262 kts | 230° |
| 2026-05-07 09:22 | 22.01654 | 114.51839 | 8564 ft | 264 kts | 248° |
| 2026-05-07 09:22 | 22.00973 | 114.49965 | 8461 ft | 271 kts | 248° |
| 2026-05-07 09:22 | 22.00268 | 114.48079 | 8319 ft | 270 kts | 248° |
| 2026-05-07 09:22 | 21.99574 | 114.46243 | 8186 ft | 266 kts | 248° |
| 2026-05-07 09:23 | 21.98878 | 114.44407 | 8053 ft | 263 kts | 248° |
| 2026-05-07 09:23 | 21.98190 | 114.42596 | 7932 ft | 261 kts | 248° |
| 2026-05-07 09:23 | 21.97501 | 114.40791 | 7798 ft | 260 kts | 248° |
| 2026-05-07 09:23 | 21.96813 | 114.38991 | 7690 ft | 260 kts | 248° |
| 2026-05-07 09:24 | 21.96122 | 114.37186 | 7554 ft | 261 kts | 248° |
| 2026-05-07 09:24 | 21.95432 | 114.35383 | 7442 ft | 261 kts | 248° |
| 2026-05-07 09:24 | 21.94738 | 114.33571 | 7305 ft | 262 kts | 248° |
| 2026-05-07 09:24 | 21.94044 | 114.31759 | 7182 ft | 262 kts | 248° |
| 2026-05-07 09:25 | 21.93346 | 114.29943 | 7054 ft | 262 kts | 248° |
| 2026-05-07 09:25 | 21.92651 | 114.28131 | 6931 ft | 262 kts | 248° |
| 2026-05-07 09:25 | 21.91953 | 114.26311 | 6797 ft | 262 kts | 248° |
| 2026-05-07 09:25 | 21.91258 | 114.24498 | 6673 ft | 262 kts | 248° |
| 2026-05-07 09:26 | 21.90561 | 114.22691 | 6546 ft | 261 kts | 248° |
| 2026-05-07 09:26 | 21.89874 | 114.20884 | 6416 ft | 256 kts | 251° |
| 2026-05-07 09:26 | 21.89671 | 114.19015 | 6274 ft | 255 kts | 277° |
| 2026-05-07 09:26 | 21.90231 | 114.17186 | 6165 ft | 261 kts | 296° |
| 2026-05-07 09:27 | 21.91101 | 114.15494 | 6057 ft | 263 kts | 298° |
| 2026-05-07 09:27 | 21.92001 | 114.13776 | 5910 ft | 263 kts | 298° |
| 2026-05-07 09:27 | 21.93803 | 114.10334 | 5650 ft | 261 kts | 298° |
| 2026-05-07 09:28 | 21.94684 | 114.08645 | 5511 ft | 256 kts | 297° |
| 2026-05-07 09:28 | 21.95559 | 114.06966 | 5402 ft | 257 kts | 298° |
| 2026-05-07 09:28 | 21.96434 | 114.05279 | 5274 ft | 260 kts | 298° |
| 2026-05-07 09:28 | 21.97320 | 114.03566 | 5147 ft | 262 kts | 298° |
| 2026-05-07 09:29 | 21.98210 | 114.01845 | 5039 ft | 264 kts | 298° |
| 2026-05-07 09:29 | 21.99098 | 114.00126 | 4890 ft | 260 kts | 298° |
| 2026-05-07 09:29 | 21.99971 | 113.98435 | 4774 ft | 257 kts | 298° |
| 2026-05-07 09:29 | 22.00843 | 113.96750 | 4647 ft | 257 kts | 298° |
| 2026-05-07 09:30 | 22.01711 | 113.95069 | 4494 ft | 256 kts | 297° |
| 2026-05-07 09:30 | 22.02573 | 113.93394 | 4391 ft | 256 kts | 298° |
| 2026-05-07 09:30 | 22.03438 | 113.91716 | 4261 ft | 256 kts | 297° |
| 2026-05-07 09:30 | 22.04301 | 113.90041 | 4132 ft | 256 kts | 298° |
| 2026-05-07 09:31 | 22.05154 | 113.88383 | 4025 ft | 256 kts | 297° |
| 2026-05-07 09:31 | 22.06020 | 113.86703 | 3901 ft | 257 kts | 297° |
| 2026-05-07 09:31 | 22.06885 | 113.85021 | 3771 ft | 257 kts | 297° |
| 2026-05-07 09:31 | 22.07754 | 113.83334 | 3661 ft | 258 kts | 298° |
| 2026-05-07 09:32 | 22.08623 | 113.81642 | 3517 ft | 258 kts | 297° |
| 2026-05-07 09:32 | 22.09494 | 113.79947 | 3408 ft | 259 kts | 297° |
| 2026-05-07 09:32 | 22.10380 | 113.78266 | 3270 ft | 255 kts | 303° |
| 2026-05-07 09:32 | 22.11698 | 113.77026 | 3143 ft | 256 kts | 333° |
| 2026-05-07 09:33 | 22.13362 | 113.76237 | 3061 ft | 261 kts | 335° |
| 2026-05-07 09:33 | 22.14994 | 113.75433 | 2899 ft | 254 kts | 334° |
| 2026-05-07 09:33 | 22.16575 | 113.74646 | 2764 ft | 247 kts | 334° |
| 2026-05-07 09:33 | 22.18118 | 113.73878 | 2641 ft | 241 kts | 334° |
| 2026-05-07 09:34 | 22.19624 | 113.73128 | 2530 ft | 236 kts | 334° |
| 2026-05-07 09:34 | 22.21089 | 113.72391 | 2403 ft | 229 kts | 334° |
| 2026-05-07 09:34 | 22.22540 | 113.71763 | 2290 ft | 220 kts | 349° |
| 2026-05-07 09:34 | 22.23960 | 113.71965 | 2215 ft | 202 kts | 28° |
| 2026-05-07 09:35 | 22.25104 | 113.72819 | 2135 ft | 202 kts | 40° |
| 2026-05-07 09:35 | 22.26188 | 113.73805 | 2013 ft | 203 kts | 43° |
| 2026-05-07 09:35 | 22.27247 | 113.74790 | 1926 ft | 198 kts | 45° |
| 2026-05-07 09:35 | 22.28033 | 113.75937 | 1806 ft | 186 kts | 69° |
| 2026-05-07 09:36 | 22.28540 | 113.77177 | 1732 ft | 176 kts | 69° |
| 2026-05-07 09:36 | 22.28976 | 113.78378 | 1658 ft | 168 kts | 72° |
| 2026-05-07 09:36 | 22.29357 | 113.79537 | 1562 ft | 154 kts | 73° |
| 2026-05-07 09:36 | 22.29693 | 113.80575 | 1406 ft | 139 kts | 76° |
| 2026-05-07 09:37 | 22.30000 | 113.81527 | 1304 ft | 133 kts | 76° |
| 2026-05-07 09:37 | 22.30305 | 113.82479 | 1120 ft | 135 kts | 75° |
| 2026-05-07 09:37 | 22.30623 | 113.83463 | 946 ft | 140 kts | 75° |
| 2026-05-07 09:37 | 22.30941 | 113.84445 | 764 ft | 138 kts | 73° |
| 2026-05-07 09:38 | 22.31262 | 113.85436 | 584 ft | 143 kts | 74° |
| 2026-05-07 09:38 | 22.31595 | 113.86465 | 400 ft | 148 kts | 72° |
| 2026-05-07 09:38 | 22.31933 | 113.87516 | 224 ft | 149 kts | 70° |
| 2026-05-07 09:38 | 22.32259 | 113.88527 | 42 ft | 131 kts | 69° |
| 2026-05-07 09:39 | 22.32526 | 113.89351 | 40 ft | 99 kts | 71° |
| 2026-05-07 09:39 | 22.32712 | 113.89924 | 40 ft | 64 kts | 71° |
| 2026-05-07 09:39 | 22.32811 | 113.90254 | 40 ft | 29 kts | 78° |
| 2026-05-07 09:39 | 22.32818 | 113.90455 | 40 ft | 27 kts | 96° |
| 2026-05-07 09:40 | 22.32787 | 113.90643 | 40 ft | 23 kts | 100° |
| 2026-05-07 09:40 | 22.32809 | 113.90792 | 40 ft | 20 kts | 70° |
| 2026-05-07 09:40 | 22.32855 | 113.90936 | 40 ft | 20 kts | 71° |
| 2026-05-07 09:40 | 22.32901 | 113.91080 | 40 ft | 20 kts | 71° |
| 2026-05-07 09:41 | 22.32948 | 113.91224 | 40 ft | 20 kts | 70° |
| 2026-05-07 09:41 | 22.32995 | 113.91368 | 40 ft | 20 kts | 70° |
| 2026-05-07 09:41 | 22.33040 | 113.91510 | 40 ft | 20 kts | 71° |
| 2026-05-07 09:41 | 22.33086 | 113.91652 | 40 ft | 20 kts | 70° |
| 2026-05-07 09:42 | 22.33132 | 113.91793 | 40 ft | 20 kts | 70° |
| 2026-05-07 09:42 | 22.33178 | 113.91934 | 38 ft | 20 kts | 71° |
| 2026-05-07 09:42 | 22.33216 | 113.92062 | 40 ft | 13 kts | 85° |
| 2026-05-07 09:42 | 22.33153 | 113.92125 | 40 ft | 14 kts | 160° |
| 2026-05-07 09:43 | 22.33064 | 113.92159 | 40 ft | 14 kts | 160° |
| 2026-05-07 09:43 | 22.32976 | 113.92192 | 40 ft | 14 kts | 160° |
| 2026-05-07 09:43 | 22.32886 | 113.92226 | 39 ft | 14 kts | 161° |
| 2026-05-07 09:43 | 22.32799 | 113.92259 | 40 ft | 14 kts | 161° |
| 2026-05-07 09:44 | 22.32709 | 113.92293 | 40 ft | 14 kts | 161° |
| 2026-05-07 09:44 | 22.32621 | 113.92326 | 40 ft | 14 kts | 161° |
| 2026-05-07 09:44 | 22.32532 | 113.92359 | 40 ft | 14 kts | 161° |
| 2026-05-07 09:44 | 22.32443 | 113.92391 | 40 ft | 14 kts | 161° |
| 2026-05-07 09:45 | 22.32354 | 113.92424 | 40 ft | 13 kts | 160° |
| 2026-05-07 09:45 | 22.32266 | 113.92459 | 39 ft | 14 kts | 156° |
| 2026-05-07 09:45 | 22.32256 | 113.92547 | 40 ft | 14 kts | 69° |
| 2026-05-07 09:45 | 22.32274 | 113.92649 | 40 ft | 10 kts | 116° |
| 2026-05-07 09:46 | 22.32206 | 113.92677 | 40 ft | 11 kts | 163° |
| 2026-05-07 09:46 | 22.32127 | 113.92703 | 38 ft | 13 kts | 163° |
| 2026-05-07 09:46 | 22.32041 | 113.92736 | 40 ft | 14 kts | 160° |
| 2026-05-07 09:46 | 22.31947 | 113.92773 | 40 ft | 15 kts | 160° |
| 2026-05-07 09:47 | 22.31862 | 113.92738 | 40 ft | 16 kts | 244° |
| 2026-05-07 09:47 | 22.31825 | 113.92627 | 40 ft | 16 kts | 250° |
| 2026-05-07 09:47 | 22.31789 | 113.92516 | 37 ft | 16 kts | 251° |
| 2026-05-07 09:47 | 22.31754 | 113.92404 | 40 ft | 16 kts | 250° |
| 2026-05-07 09:48 | 22.31717 | 113.92294 | 40 ft | 16 kts | 250° |
| 2026-05-07 09:48 | 22.31681 | 113.92183 | 40 ft | 16 kts | 250° |
| 2026-05-07 09:48 | 22.31646 | 113.92073 | 40 ft | 16 kts | 251° |
| 2026-05-07 09:48 | 22.31578 | 113.92035 | 40 ft | 13 kts | 161° |
| 2026-05-07 09:49 | 22.31492 | 113.92068 | 40 ft | 13 kts | 160° |
| 2026-05-07 09:49 | 22.31405 | 113.92101 | 40 ft | 13 kts | 160° |
| 2026-05-07 09:49 | 22.31319 | 113.92134 | 40 ft | 13 kts | 161° |
| 2026-05-07 09:49 | 22.31232 | 113.92167 | 40 ft | 13 kts | 161° |
| 2026-05-07 09:50 | 22.31145 | 113.92198 | 40 ft | 13 kts | 161° |
| 2026-05-07 09:50 | 22.31058 | 113.92230 | 40 ft | 13 kts | 161° |
| 2026-05-07 09:50 | 22.30966 | 113.92264 | 38 ft | 14 kts | 161° |
| 2026-05-07 09:50 | 22.30872 | 113.92300 | 40 ft | 14 kts | 160° |
| 2026-05-07 09:51 | 22.30777 | 113.92336 | 40 ft | 14 kts | 161° |
| 2026-05-07 09:51 | 22.30743 | 113.92405 | 40 ft | 12 kts | 73° |
| 2026-05-07 09:51 | 22.30772 | 113.92496 | 40 ft | 13 kts | 71° |
| 2026-05-07 09:51 | 22.30804 | 113.92596 | 40 ft | 15 kts | 71° |
| 2026-05-07 09:52 | 22.30842 | 113.92703 | 38 ft | 16 kts | 56° |
| 2026-05-07 09:52 | 22.30936 | 113.92766 | 40 ft | 16 kts | 26° |
| 2026-05-07 09:52 | 22.31037 | 113.92818 | 40 ft | 16 kts | 25° |
| 2026-05-07 09:52 | 22.31138 | 113.92870 | 40 ft | 16 kts | 25° |
| 2026-05-07 09:53 | 22.31200 | 113.92964 | 38 ft | 16 kts | 69° |
| 2026-05-07 09:53 | 22.31238 | 113.93081 | 40 ft | 17 kts | 70° |
| 2026-05-07 09:53 | 22.31277 | 113.93199 | 40 ft | 17 kts | 70° |
| 2026-05-07 09:53 | 22.31296 | 113.93290 | 40 ft | 7 kts | 94° |
| 2026-05-07 09:54 | 22.31304 | 113.93325 | 40 ft | 8 kts | 57° |
| 2026-05-07 09:54 | 22.31347 | 113.93351 | 40 ft | 5 kts | 18° |
| 2026-05-07 09:54 | 22.31366 | 113.93361 | 40 ft | 3 kts | 25° |
| 2026-05-07 09:54 | 22.31374 | 113.93365 | 40 ft | 1 kts | 25° |
| 2026-05-07 09:55 | 22.31377 | 113.93367 | 40 ft | 1 kts | 25° |
| 2026-05-07 09:55 | 22.31379 | 113.93367 | 40 ft | 0 kts | 25° |
| 2026-05-07 09:56 | 22.31374 | 113.93365 | 40 ft | 0 kts | 26° |